createdAt,value
2023-01-19T00:04:09.901Z,0.6
2023-01-19T00:09:15.989Z,0.6
2023-01-19T00:14:22.090Z,0.6
2023-01-19T00:19:28.136Z,0.6
2023-01-19T00:24:34.205Z,0.6
2023-01-19T00:29:40.318Z,0.6
2023-01-19T00:34:46.363Z,0.6
2023-01-19T00:39:52.448Z,0.6
2023-01-19T00:44:58.560Z,0.6
2023-01-19T00:50:04.579Z,0.6
2023-01-19T00:55:10.657Z,0.7
2023-01-19T01:00:16.750Z,0.7
2023-01-19T01:05:22.814Z,0.7
2023-01-19T01:10:28.863Z,0.7
2023-01-19T01:15:34.999Z,0.7
2023-01-19T01:20:41.025Z,0.7
2023-01-19T01:25:47.104Z,0.7
2023-01-19T01:30:53.215Z,0.7
2023-01-19T01:35:59.237Z,0.7
2023-01-19T01:41:05.305Z,0.7
2023-01-19T01:46:11.454Z,0.7
2023-01-19T01:51:17.468Z,0.7
2023-01-19T01:56:23.538Z,0.8
2023-01-19T02:01:29.732Z,0.8
2023-01-19T02:06:35.681Z,0.8
2023-01-19T02:11:41.788Z,0.8
2023-01-19T02:16:47.942Z,0.8
2023-01-19T02:21:53.913Z,0.8
2023-01-19T02:26:59.974Z,0.8
2023-01-19T02:32:06.123Z,0.8
2023-01-19T02:37:12.149Z,0.8
2023-01-19T02:42:18.216Z,0.8
2023-01-19T02:47:24.326Z,0.8
2023-01-19T02:52:30.352Z,0.8
2023-01-19T02:57:36.440Z,0.8
2023-01-19T03:02:42.551Z,0.8
2023-01-19T03:07:48.583Z,0.8
2023-01-19T03:12:54.670Z,0.8
2023-01-19T03:18:00.739Z,0.8
2023-01-19T03:23:06.926Z,0.8
2023-01-19T03:28:12.892Z,0.8
2023-01-19T03:33:18.978Z,0.8
2023-01-19T03:38:25.027Z,0.8
2023-01-19T03:43:31.097Z,0.8
2023-01-19T03:48:37.205Z,0.8
2023-01-19T03:53:43.249Z,0.8
2023-01-19T03:58:49.320Z,0.8
2023-01-19T04:03:55.434Z,0.8
2023-01-19T04:09:01.480Z,0.8
2023-01-19T04:14:07.547Z,0.8
2023-01-19T04:19:13.640Z,0.8
2023-01-19T04:24:19.677Z,0.8
2023-01-19T04:29:25.765Z,0.8
2023-01-19T04:34:33.784Z,0.8
2023-01-19T04:39:39.800Z,0.8
2023-01-19T04:44:45.864Z,0.8
2023-01-19T04:49:53.850Z,0.8
2023-01-19T04:54:59.895Z,0.8
2023-01-19T05:00:05.983Z,0.8
2023-01-19T05:05:12.093Z,0.8
2023-01-19T05:10:18.105Z,0.8
2023-01-19T05:15:24.206Z,0.8
2023-01-19T05:20:30.345Z,0.8
2023-01-19T05:25:36.350Z,0.8
2023-01-19T05:30:42.421Z,0.8
2023-01-19T05:35:48.572Z,0.8
2023-01-19T05:40:54.584Z,0.8
2023-01-19T05:46:02.548Z,0.8
2023-01-19T05:51:10.465Z,0.9
2023-01-19T05:56:18.426Z,0.9
2023-01-19T06:01:26.387Z,0.9
2023-01-19T06:06:34.322Z,0.9
2023-01-19T06:11:42.235Z,0.9
2023-01-19T06:16:50.189Z,0.9
2023-01-19T06:21:58.176Z,0.9
2023-01-19T06:27:06.082Z,0.9
2023-01-19T06:32:14.031Z,0.9
2023-01-19T06:37:22.026Z,0.9
2023-01-19T06:42:29.915Z,0.9
2023-01-19T06:47:37.877Z,0.9
2023-01-19T06:52:45.858Z,0.9
2023-01-19T06:57:53.791Z,1
2023-01-19T07:03:02.384Z,1
2023-01-19T07:08:09.688Z,1
2023-01-19T07:13:17.643Z,1
2023-01-19T07:18:25.587Z,1
2023-01-19T07:23:33.686Z,1
2023-01-19T07:28:41.477Z,1
2023-01-19T07:33:49.449Z,1
2023-01-19T07:38:55.532Z,1
2023-01-19T07:44:01.572Z,1
2023-01-19T07:49:07.635Z,1
2023-01-19T07:54:13.738Z,1
2023-01-19T07:59:19.808Z,1
2023-01-19T08:04:25.890Z,1
2023-01-19T08:09:31.985Z,1
2023-01-19T08:19:45.945Z,1
2023-01-19T08:24:52.132Z,1.1
2023-01-19T08:29:58.148Z,1.1
2023-01-19T08:35:04.192Z,1.1
2023-01-19T08:40:10.431Z,1.1
2023-01-19T08:45:16.343Z,1.1
2023-01-19T08:50:22.438Z,1.1
2023-01-19T08:55:28.587Z,1.1
2023-01-19T09:00:34.577Z,1.1
2023-01-19T09:05:40.629Z,1.1
2023-01-19T09:10:46.742Z,1.1
2023-01-19T09:15:52.835Z,1.1
2023-01-19T09:20:58.868Z,1.1
2023-01-19T09:26:06.842Z,1.2
2023-01-19T09:31:14.894Z,1.2
2023-01-19T09:36:22.683Z,1.2
2023-01-19T09:41:30.677Z,1.2
2023-01-19T09:46:38.656Z,1.2
2023-01-19T09:51:46.540Z,1.2
2023-01-19T09:56:54.549Z,1.2
2023-01-19T10:02:02.440Z,1.2
2023-01-19T10:07:10.408Z,1.3
2023-01-19T10:12:19.855Z,1.3
2023-01-19T10:17:26.309Z,1.3
2023-01-19T10:22:34.229Z,1.3
2023-01-19T10:27:42.248Z,1.3
2023-01-19T10:32:50.131Z,1.3
2023-01-19T10:37:58.071Z,1.3
2023-01-19T10:43:06.048Z,1.4
2023-01-19T10:48:13.959Z,1.4
2023-01-19T10:53:21.990Z,1.4
2023-01-19T10:58:29.972Z,1.4
2023-01-19T11:08:45.771Z,1.4
2023-01-19T11:13:53.725Z,1.4
2023-01-19T11:19:01.673Z,1.4
2023-01-19T11:24:07.742Z,1.4
2023-01-19T11:29:13.824Z,1.5
2023-01-19T11:34:19.867Z,1.5
2023-01-19T11:39:25.939Z,1.5
2023-01-19T11:44:32.083Z,1.5
2023-01-19T11:49:38.102Z,1.5
2023-01-19T11:54:44.172Z,1.5
2023-01-19T11:59:50.288Z,1.5
2023-01-19T12:10:04.308Z,1.6
2023-01-19T12:15:10.389Z,1.6
2023-01-19T12:20:16.443Z,1.6
2023-01-19T12:25:22.500Z,1.6
2023-01-19T12:30:28.780Z,1.6
2023-01-19T12:35:36.515Z,1.7
2023-01-19T12:40:42.611Z,1.7
2023-01-19T12:45:50.572Z,1.7
2023-01-19T12:50:56.618Z,1.8
2023-01-19T12:56:02.683Z,1.8
2023-01-19T13:01:08.874Z,1.8
2023-01-19T13:06:14.834Z,1.9
2023-01-19T13:11:21.019Z,1.9
2023-01-19T13:16:27.024Z,1.9
2023-01-19T13:21:34.949Z,2
2023-01-19T13:26:42.875Z,2
2023-01-19T13:31:50.845Z,2
2023-01-19T13:36:58.756Z,2.1
2023-01-19T13:42:06.705Z,2.1
2023-01-19T13:47:14.684Z,2.1
2023-01-19T13:52:22.645Z,2.1
2023-01-19T13:57:30.553Z,2.1
2023-01-19T14:02:38.717Z,2.1
2023-01-19T14:07:46.559Z,2.2
2023-01-19T14:12:59.330Z,2.2
2023-01-19T14:18:02.407Z,2.2
2023-01-19T14:23:10.297Z,2.2
2023-01-19T14:28:18.252Z,2.2
2023-01-19T14:33:26.281Z,2.2
2023-01-19T14:38:34.159Z,2.2
2023-01-19T14:43:42.095Z,2.2
2023-01-19T14:48:50.063Z,2.2
2023-01-19T14:53:58.940Z,2.2
2023-01-19T14:59:05.924Z,2.2
2023-01-19T15:04:13.892Z,2.2
2023-01-19T15:09:21.840Z,2.2
2023-01-19T15:14:29.787Z,2.2
2023-01-19T15:19:37.752Z,2.2
2023-01-19T15:24:45.682Z,2.2
2023-01-19T15:29:53.613Z,2.2
2023-01-19T15:35:01.588Z,2.2
2023-01-19T15:40:09.539Z,2.2
2023-01-19T15:45:17.467Z,2.2
2023-01-19T15:50:25.448Z,2.2
2023-01-19T15:55:33.352Z,2.2
2023-01-19T16:00:41.523Z,2.2
2023-01-19T16:05:49.291Z,2.2
2023-01-19T16:10:57.204Z,2.1
2023-01-19T16:16:05.197Z,2.1
2023-01-19T16:21:13.169Z,2.1
2023-01-19T16:26:21.065Z,2.1
2023-01-19T16:31:29.093Z,2.1
2023-01-19T16:36:37.037Z,2.1
2023-01-19T16:41:44.892Z,2.1
2023-01-19T16:46:52.853Z,2.1
2023-01-19T16:52:00.840Z,2.1
2023-01-19T16:57:08.742Z,2.1
2023-01-19T17:02:16.691Z,2.1
2023-01-19T17:07:24.711Z,2.1
2023-01-19T17:12:32.624Z,2.1
2023-01-19T17:17:40.562Z,2.1
2023-01-19T17:22:48.549Z,2.1
2023-01-19T17:27:56.503Z,2.1
2023-01-19T17:33:04.417Z,2
2023-01-19T17:38:12.391Z,2
2023-01-19T17:43:20.312Z,2
2023-01-19T17:48:28.286Z,2
2023-01-19T17:53:36.233Z,2
2023-01-19T17:58:44.175Z,2
2023-01-19T18:03:52.109Z,2
2023-01-19T18:09:00.108Z,2
2023-01-19T18:14:08.003Z,2
2023-01-19T18:19:15.950Z,2
2023-01-19T18:24:23.926Z,2
2023-01-19T18:29:29.984Z,2
2023-01-19T18:34:36.039Z,2
2023-01-19T18:39:42.152Z,2
2023-01-19T18:44:48.195Z,2
2023-01-19T18:49:54.263Z,2
2023-01-19T18:55:00.363Z,2
2023-01-19T19:00:06.430Z,2
2023-01-19T19:05:12.495Z,2
2023-01-19T19:10:18.585Z,1.9
2023-01-19T19:15:24.623Z,1.9
2023-01-19T19:20:30.712Z,1.9
2023-01-19T19:25:36.811Z,1.9
2023-01-19T19:30:44.756Z,1.9
2023-01-19T19:35:50.775Z,1.9
2023-01-19T19:40:56.903Z,1.9
2023-01-19T19:46:03.027Z,1.9
2023-01-19T19:51:17.503Z,1.9
2023-01-19T19:56:15.100Z,1.9
2023-01-19T20:01:21.330Z,1.9
2023-01-19T20:06:27.242Z,1.9
2023-01-19T20:11:33.363Z,1.8
2023-01-19T20:16:39.401Z,1.8
2023-01-19T20:21:45.447Z,1.8
2023-01-19T20:26:51.567Z,1.8
2023-01-19T20:31:57.660Z,1.8
2023-01-19T20:37:03.660Z,1.8
2023-01-19T20:42:11.643Z,1.8
2023-01-19T20:47:17.690Z,1.8
2023-01-19T20:52:23.938Z,1.8
2023-01-19T20:57:29.872Z,1.8
2023-01-19T21:02:36.028Z,1.8
2023-01-19T21:07:42.201Z,1.8
2023-01-19T21:12:48.120Z,1.8
2023-01-19T21:17:56.018Z,1.8
2023-01-19T21:23:03.995Z,1.8
2023-01-19T21:28:10.091Z,1.8
2023-01-19T21:33:16.119Z,1.8
2023-01-19T21:38:22.408Z,1.8
2023-01-19T21:43:28.296Z,1.8
2023-01-19T21:48:34.343Z,1.8
2023-01-19T21:53:42.302Z,1.8
2023-01-19T21:58:48.397Z,1.8
2023-01-19T22:03:54.444Z,1.8
2023-01-19T22:09:00.508Z,1.8
2023-01-19T22:14:06.639Z,1.7
2023-01-19T22:19:12.672Z,1.7
2023-01-19T22:24:18.754Z,1.7
2023-01-19T22:29:24.841Z,1.7
2023-01-19T22:34:30.878Z,1.7
2023-01-19T22:39:36.965Z,1.7
2023-01-19T22:44:43.046Z,1.7
2023-01-19T22:49:49.112Z,1.7
2023-01-19T22:54:55.210Z,1.7
2023-01-19T23:00:01.269Z,1.7
2023-01-19T23:05:09.264Z,1.7
2023-01-19T23:10:17.142Z,1.7
2023-01-19T23:15:25.262Z,1.7
2023-01-19T23:20:33.048Z,1.7
2023-01-19T23:25:40.999Z,1.7
2023-01-19T23:30:49.070Z,1.7
2023-01-19T23:35:56.882Z,1.7
2023-01-19T23:41:04.827Z,1.7
2023-01-19T23:46:12.896Z,1.7
2023-01-19T23:51:20.722Z,1.7
2023-01-19T23:56:28.709Z,1.7
